createdAt,value
2022-08-16T05:07:23.521Z,9.23
2022-08-16T05:10:02.227Z,8.95
2022-08-16T05:12:30.690Z,12.05
2022-08-16T05:15:02.659Z,8.68
2022-08-16T05:17:31.918Z,11.60
2022-08-16T05:20:00.272Z,8.40
2022-08-16T05:22:38.585Z,8.40
2022-08-16T05:25:08.704Z,10.82
2022-08-16T05:27:43.058Z,9.23
2022-08-16T05:30:35.755Z,8.60
2022-08-16T05:33:01.755Z,12.07
2022-08-16T05:35:29.028Z,9.32
2022-08-16T05:38:32.744Z,9.80
2022-08-16T05:41:07.039Z,11.20
2022-08-16T05:43:43.648Z,9.25
2022-08-16T05:46:30.467Z,9.35
2022-08-16T05:49:08.835Z,9.15
2022-08-16T05:51:40.191Z,10.88
2022-08-16T05:54:11.611Z,10.80
2022-08-16T05:56:43.314Z,8.95
2022-08-16T05:59:11.654Z,10.13
2022-08-16T06:01:40.387Z,10.63
2022-08-16T06:04:12.805Z,9.40
2022-08-16T06:06:57.661Z,9.48
2022-08-16T06:09:42.840Z,9.45
2022-08-16T06:12:12.873Z,9.23
2022-08-16T06:14:58.762Z,10.45
2022-08-16T06:17:42.638Z,8.73
2022-08-16T06:20:24.259Z,10.98
2022-08-16T06:23:02.854Z,13.35
2022-08-16T06:25:44.100Z,8.90
2022-08-16T06:28:36.342Z,11.00
2022-08-16T06:31:12.040Z,10.07
2022-08-16T06:33:42.366Z,11.05
2022-08-16T06:36:14.105Z,8.70
2022-08-16T06:41:39.777Z,8.90
2022-08-16T06:44:20.746Z,11.55
2022-08-16T06:46:52.820Z,10.02
2022-08-16T06:49:21.093Z,9.02
2022-08-16T06:51:48.909Z,8.30
2022-08-16T06:54:21.802Z,7.10
2022-08-16T06:56:52.417Z,7.07
2022-08-16T06:59:25.837Z,10.80
2022-08-16T07:01:58.028Z,7.80
2022-08-16T07:04:33.039Z,9.07
2022-08-16T07:07:06.200Z,11.63
2022-08-16T07:09:37.653Z,7.53
2022-08-16T07:12:06.001Z,7.90
2022-08-16T07:14:36.247Z,8.98
2022-08-16T07:17:08.342Z,9.70
2022-08-16T07:20:03.309Z,8.15
2022-08-16T07:22:37.014Z,10.90
2022-08-16T07:25:12.609Z,6.63
2022-08-16T07:27:41.386Z,8.85
2022-08-16T07:30:38.887Z,9.07
2022-08-16T07:33:03.445Z,6.95
2022-08-16T07:35:31.866Z,5.75
2022-08-16T07:37:59.023Z,6.90
2022-08-16T07:43:18.250Z,9.45
2022-08-16T07:45:53.073Z,9.02
2022-08-16T07:48:21.593Z,7.22
2022-08-16T07:53:25.483Z,9.83
2022-08-16T07:55:56.624Z,7.13
2022-08-16T07:58:33.905Z,6.90
2022-08-16T08:01:10.698Z,8.55
2022-08-16T08:03:49.284Z,6.80
2022-08-16T08:06:24.724Z,9.05
2022-08-16T08:08:57.524Z,6.32
2022-08-16T08:11:28.702Z,13.50
2022-08-16T08:14:03.237Z,7.00
2022-08-16T08:16:35.645Z,9.68
2022-08-16T08:19:03.946Z,6.80
2022-08-16T08:22:00.793Z,6.53
2022-08-16T08:24:31.566Z,8.00
2022-08-16T08:27:02.259Z,10.57
2022-08-16T08:29:37.469Z,7.38
2022-08-16T08:32:57.668Z,4.68
2022-08-16T08:35:03.745Z,7.07
2022-08-16T08:37:55.136Z,9.67
2022-08-16T08:40:28.334Z,6.72
2022-08-16T08:43:11.822Z,7.18
2022-08-16T08:45:47.234Z,7.32
2022-08-16T08:48:33.015Z,7.15
2022-08-16T08:51:05.067Z,5.88
2022-08-16T08:53:34.364Z,4.78
2022-08-16T08:56:22.574Z,8.27
2022-08-16T08:58:58.229Z,6.47
2022-08-16T09:01:42.631Z,7.50
2022-08-16T09:04:14.365Z,8.02
2022-08-16T09:06:45.574Z,2.50
2022-08-16T09:09:17.124Z,4.93
2022-08-16T09:11:53.795Z,3.00
2022-08-16T09:14:38.643Z,3.63
2022-08-16T09:17:21.534Z,3.20
2022-08-16T09:19:57.196Z,4.22
2022-08-16T09:22:28.100Z,5.45
2022-08-16T09:25:09.664Z,5.72
2022-08-16T09:27:56.989Z,6.75
2022-08-16T09:30:33.286Z,6.03
2022-08-16T09:33:06.737Z,3.80
2022-08-16T09:35:37.242Z,3.55
2022-08-16T09:38:08.620Z,2.17
2022-08-16T09:40:42.718Z,2.83
2022-08-16T09:43:46.351Z,1.80
2022-08-16T09:46:33.520Z,2.08
2022-08-16T09:48:56.462Z,2.22
2022-08-16T09:51:30.636Z,2.50
2022-08-16T09:54:04.559Z,2.92
2022-08-16T09:56:34.075Z,1.95
2022-08-16T09:59:03.801Z,3.78
2022-08-16T10:01:33.537Z,4.03
2022-08-16T10:04:02.773Z,3.25
2022-08-16T10:06:33.629Z,2.97
2022-08-16T10:09:11.276Z,1.60
2022-08-16T10:12:11.371Z,2.85
2022-08-16T10:14:46.350Z,2.60
2022-08-16T10:17:13.793Z,3.35
2022-08-16T10:19:41.764Z,2.47
2022-08-16T10:22:12.641Z,7.47
2022-08-16T10:24:56.124Z,3.40
2022-08-16T10:27:45.744Z,2.20
2022-08-16T10:30:26.152Z,3.10
2022-08-16T10:32:56.677Z,1.80
2022-08-16T10:35:24.606Z,2.17
2022-08-16T10:38:00.237Z,1.80
2022-08-16T10:40:29.295Z,3.13
2022-08-16T10:43:00.264Z,2.35
2022-08-16T10:45:36.647Z,5.10
2022-08-16T10:48:23.926Z,2.35
2022-08-16T10:50:56.338Z,2.45
2022-08-16T10:53:32.709Z,1.75
2022-08-16T10:56:02.544Z,3.22
2022-08-16T10:58:34.500Z,1.55
2022-08-16T11:03:57.407Z,3.10
2022-08-16T11:06:27.872Z,1.83
2022-08-16T11:15:27.446Z,1.55
2022-08-16T11:20:49.335Z,2.88
2022-08-16T11:23:17.627Z,2.03
2022-08-16T11:26:16.637Z,1.80
2022-08-16T11:31:20.076Z,2.72
2022-08-16T11:33:52.848Z,2.28
2022-08-16T11:36:27.441Z,1.83
2022-08-16T11:38:58.292Z,1.63
2022-08-16T11:41:29.403Z,2.17
2022-08-16T11:43:58.173Z,3.05
2022-08-16T11:46:44.373Z,2.05
2022-08-16T11:49:13.883Z,1.17
2022-08-16T11:51:44.107Z,4.20
2022-08-16T11:54:20.381Z,2.03
2022-08-16T11:56:52.533Z,1.38
2022-08-16T11:59:25.349Z,1.35
2022-08-16T12:02:00.043Z,0.82
2022-08-16T12:04:32.536Z,2.03
2022-08-16T12:07:02.017Z,1.20
2022-08-16T12:12:02.712Z,1.20
2022-08-16T12:14:35.395Z,2.05
2022-08-16T12:17:08.219Z,1.42
2022-08-16T12:19:36.210Z,1.30
2022-08-16T12:22:18.561Z,1.88
2022-08-16T12:24:51.202Z,2.55
2022-08-16T12:27:23.202Z,1.40
2022-08-16T12:29:54.899Z,1.88
2022-08-16T12:32:35.632Z,1.60
2022-08-16T12:35:08.423Z,2.30
2022-08-16T12:37:36.152Z,2.40
2022-08-16T12:40:21.283Z,1.38
2022-08-16T12:42:59.024Z,3.28
2022-08-16T12:45:41.534Z,1.50
2022-08-16T12:48:34.072Z,2.88
2022-08-16T12:51:19.389Z,2.58
2022-08-16T12:53:54.731Z,1.58
2022-08-16T12:56:25.623Z,1.50
2022-08-16T12:58:55.945Z,1.52
2022-08-16T13:01:28.681Z,1.52
2022-08-16T13:04:11.949Z,2.47
2022-08-16T13:06:46.190Z,3.50
2022-08-16T13:09:20.896Z,1.17
2022-08-16T13:12:04.381Z,1.38
2022-08-16T13:14:39.686Z,1.35
2022-08-16T13:17:16.999Z,1.30
2022-08-16T13:20:07.840Z,1.98
2022-08-16T13:23:00.869Z,2.38
2022-08-16T13:25:33.170Z,6.38
2022-08-16T13:28:02.075Z,2.03
2022-08-16T13:30:41.352Z,1.50
2022-08-16T13:33:37.232Z,1.10
2022-08-16T13:36:07.475Z,3.95
2022-08-16T13:38:43.942Z,1.63
2022-08-16T13:41:14.342Z,2.33
2022-08-16T13:43:42.074Z,2.25
2022-08-16T13:46:09.267Z,1.55
2022-08-16T13:48:44.354Z,1.25
2022-08-16T13:51:18.552Z,2.38
2022-08-16T13:53:59.805Z,1.67
2022-08-16T13:56:37.513Z,1.40
2022-08-16T13:59:19.686Z,1.58
2022-08-16T14:01:55.244Z,1.23
2022-08-16T14:04:28.540Z,1.77
2022-08-16T14:07:00.903Z,2.10
2022-08-16T14:09:30.269Z,1.30
2022-08-16T14:12:00.504Z,1.88
2022-08-16T14:17:01.845Z,1.58
2022-08-16T14:19:30.010Z,2.28
2022-08-16T14:22:15.358Z,1.20
2022-08-16T14:24:49.099Z,1.40
2022-08-16T14:27:21.365Z,1.23
2022-08-16T14:29:50.553Z,2.47
2022-08-16T14:32:33.687Z,1.25
2022-08-16T14:35:08.316Z,1.30
2022-08-16T14:37:37.489Z,3.00
2022-08-16T14:40:07.414Z,1.50
2022-08-16T14:42:36.758Z,1.08
2022-08-16T14:45:05.699Z,4.60
2022-08-16T14:47:34.754Z,1.42
2022-08-16T14:50:02.840Z,3.03
2022-08-16T14:55:19.905Z,4.30
2022-08-16T14:57:47.645Z,4.13
2022-08-16T15:00:15.799Z,1.48
2022-08-16T15:02:49.849Z,1.05
2022-08-16T15:05:24.031Z,1.40
2022-08-16T15:07:52.566Z,2.85
2022-08-16T15:10:24.467Z,2.15
2022-08-16T15:12:58.414Z,1.35
2022-08-16T15:15:29.334Z,4.43
2022-08-16T15:17:57.700Z,1.20
2022-08-16T15:20:31.479Z,1.15
2022-08-16T15:23:01.545Z,0.90
2022-08-16T15:25:33.230Z,1.30
2022-08-16T15:28:05.301Z,1.55
2022-08-16T15:30:56.573Z,1.45
2022-08-16T15:33:26.731Z,1.17
2022-08-16T15:35:57.916Z,1.60
2022-08-16T15:38:57.352Z,1.52
2022-08-16T15:41:32.194Z,2.28
2022-08-16T15:44:05.266Z,1.25
2022-08-16T15:46:56.419Z,1.48
2022-08-16T15:49:37.791Z,1.20
2022-08-16T15:52:12.623Z,1.98
2022-08-16T15:54:53.496Z,1.25
2022-08-16T15:57:24.798Z,1.63
2022-08-16T15:59:56.271Z,1.23
2022-08-16T16:03:02.419Z,1.63
2022-08-16T16:05:29.769Z,2.72
2022-08-16T16:08:12.316Z,2.20
2022-08-16T16:10:43.873Z,1.65
2022-08-16T16:13:23.093Z,2.58
2022-08-16T16:15:55.064Z,2.80
2022-08-16T16:18:30.491Z,1.58
2022-08-16T16:21:06.510Z,1.48
2022-08-16T16:23:44.379Z,1.48
2022-08-16T16:26:13.537Z,1.80
2022-08-16T16:29:05.799Z,1.92
2022-08-16T16:32:07.548Z,4.03
2022-08-16T16:49:26.575Z,4.88
2022-08-16T16:51:53.745Z,3.88
2022-08-16T16:54:35.704Z,2.85
2022-08-16T16:57:03.324Z,1.50
2022-08-16T16:59:31.259Z,2.03
2022-08-16T17:02:38.997Z,1.52
2022-08-16T17:04:48.288Z,3.38
2022-08-16T17:07:16.413Z,1.60
2022-08-16T17:09:46.930Z,1.83
2022-08-16T17:12:25.445Z,2.05
2022-08-16T17:15:01.441Z,1.85
2022-08-16T17:17:30.840Z,3.78
2022-08-16T17:20:30.082Z,3.08
2022-08-16T17:22:57.789Z,3.70
2022-08-16T17:25:36.464Z,2.65
2022-08-16T17:28:58.277Z,1.90
2022-08-16T17:30:52.157Z,2.78
2022-08-16T17:33:20.987Z,1.63
2022-08-16T17:35:55.208Z,2.55
2022-08-16T17:38:38.570Z,1.70
2022-08-16T17:41:12.005Z,6.45
2022-08-16T17:43:44.260Z,2.70
2022-08-16T17:46:50.602Z,2.42
2022-08-16T17:49:05.143Z,4.60
2022-08-16T17:51:34.273Z,2.45
2022-08-16T17:54:03.480Z,2.35
2022-08-16T17:56:39.884Z,2.95
2022-08-16T17:59:07.121Z,2.13
2022-08-16T18:01:34.537Z,4.05
2022-08-16T18:04:09.126Z,3.17
2022-08-16T18:06:38.013Z,3.63
2022-08-16T18:09:10.637Z,5.05
2022-08-16T18:11:46.219Z,3.70
2022-08-16T18:14:15.849Z,4.68
2022-08-16T18:16:43.492Z,2.75
2022-08-16T18:19:11.266Z,3.28
2022-08-16T18:21:57.333Z,2.50
2022-08-16T18:24:28.264Z,4.38
2022-08-16T18:26:55.320Z,3.95
2022-08-16T18:29:22.925Z,4.22
2022-08-16T18:31:51.070Z,3.88
2022-08-16T18:34:20.742Z,3.17
2022-08-16T18:36:48.309Z,3.67
2022-08-16T18:39:16.347Z,4.38
2022-08-16T18:41:43.418Z,3.25
2022-08-16T18:44:25.115Z,3.55
2022-08-16T18:46:53.997Z,3.45
2022-08-16T18:49:21.055Z,4.63
2022-08-16T18:51:48.097Z,3.88
2022-08-16T18:54:18.425Z,3.70
2022-08-16T18:56:55.744Z,3.70
2022-08-16T18:59:26.186Z,4.00
2022-08-16T19:01:53.665Z,3.30
2022-08-16T19:04:56.562Z,3.78
2022-08-16T19:07:14.730Z,3.40
2022-08-16T19:09:41.755Z,3.05
2022-08-16T19:12:09.231Z,3.63
2022-08-16T19:14:36.184Z,6.28
2022-08-16T19:17:03.172Z,4.90
2022-08-16T19:19:30.164Z,3.05
2022-08-16T19:21:57.660Z,3.35
2022-08-16T19:24:29.227Z,4.03
2022-08-16T19:26:57.119Z,3.35
2022-08-16T19:29:24.634Z,3.78
2022-08-16T19:31:51.825Z,3.63
2022-08-16T19:34:18.878Z,5.03
2022-08-16T19:36:45.927Z,3.28
2022-08-16T19:39:15.327Z,4.63
2022-08-16T19:41:45.854Z,4.45
2022-08-16T19:44:12.984Z,4.70
2022-08-16T19:46:44.794Z,6.80
2022-08-16T19:49:15.955Z,4.82
2022-08-16T19:51:47.269Z,4.05
2022-08-16T19:54:14.509Z,4.30
2022-08-16T19:56:41.449Z,3.70
2022-08-16T19:59:39.166Z,6.15
2022-08-16T20:01:55.572Z,3.70
2022-08-16T20:04:23.705Z,5.35
2022-08-16T20:06:52.258Z,4.13
2022-08-16T20:09:20.708Z,4.57
2022-08-16T20:11:49.084Z,3.60
2022-08-16T20:14:19.411Z,8.18
2022-08-16T20:16:58.222Z,5.18
2022-08-16T20:19:27.482Z,4.63
2022-08-16T20:21:56.613Z,4.72
2022-08-16T20:24:39.919Z,3.47
2022-08-16T20:27:09.702Z,3.47
2022-08-16T20:29:39.619Z,5.05
2022-08-16T20:32:09.496Z,5.68
2022-08-16T20:34:36.874Z,3.70
2022-08-16T20:37:06.091Z,4.78
2022-08-16T20:39:33.327Z,5.97
2022-08-16T20:42:00.304Z,4.32
2022-08-16T20:44:27.264Z,4.30
2022-08-16T20:46:54.200Z,5.25
2022-08-16T20:49:21.250Z,5.82
2022-08-16T20:51:50.869Z,7.05
2022-08-16T20:54:20.747Z,4.20
2022-08-16T20:56:47.737Z,6.32
2022-08-16T20:59:14.834Z,5.82
2022-08-16T21:01:46.713Z,3.75
2022-08-16T21:04:21.683Z,4.70
2022-08-16T21:06:54.432Z,9.88
2022-08-16T21:09:26.485Z,4.70
2022-08-16T21:11:55.306Z,5.53
2022-08-16T21:14:23.437Z,4.68
2022-08-16T21:16:50.574Z,7.05
2022-08-16T21:19:17.711Z,5.45
2022-08-16T21:21:44.768Z,8.63
2022-08-16T21:24:11.751Z,5.43
2022-08-16T21:26:38.827Z,7.22
2022-08-16T21:29:07.737Z,6.15
2022-08-16T21:31:41.039Z,6.88
2022-08-16T21:34:08.805Z,4.85
2022-08-16T21:36:36.600Z,4.72
2022-08-16T21:39:06.952Z,6.30
2022-08-16T21:41:35.690Z,5.45
2022-08-16T21:44:02.857Z,5.50
2022-08-16T21:46:29.846Z,7.60
2022-08-16T21:48:56.982Z,4.53
2022-08-16T21:51:23.966Z,4.18
2022-08-16T21:53:51.005Z,4.90
2022-08-16T21:56:18.335Z,3.88
2022-08-16T21:58:46.256Z,4.25
2022-08-16T22:01:13.511Z,4.05
2022-08-16T22:03:40.615Z,6.88
2022-08-16T22:06:13.865Z,4.63
2022-08-16T22:08:50.623Z,6.55
2022-08-16T22:11:20.754Z,4.90
2022-08-16T22:13:57.164Z,5.10
2022-08-16T22:16:31.503Z,4.85
2022-08-16T22:18:59.741Z,5.43
2022-08-16T22:21:27.014Z,4.00
2022-08-16T22:23:56.749Z,4.22
2022-08-16T22:26:31.816Z,5.15
2022-08-16T22:29:01.425Z,3.90
2022-08-16T22:31:28.518Z,4.22
2022-08-16T22:33:56.776Z,6.93
2022-08-16T22:36:28.567Z,5.97
2022-08-16T22:39:01.972Z,5.60
2022-08-16T22:41:31.826Z,5.28
2022-08-16T22:43:59.918Z,4.72
2022-08-16T22:46:27.131Z,5.05
2022-08-16T22:48:54.185Z,5.38
2022-08-16T22:51:23.878Z,5.72
2022-08-16T22:53:51.353Z,6.90
2022-08-16T22:56:19.776Z,4.82
2022-08-16T22:58:47.312Z,6.57
2022-08-16T23:01:15.341Z,5.05
2022-08-16T23:03:43.310Z,5.18
2022-08-16T23:06:11.979Z,4.45
2022-08-16T23:08:41.205Z,4.63
2022-08-16T23:11:12.234Z,4.97
2022-08-16T23:13:52.910Z,5.07
2022-08-16T23:16:39.176Z,6.17
2022-08-16T23:19:12.649Z,5.53
2022-08-16T23:21:41.919Z,4.95
2022-08-16T23:24:09.370Z,5.78
2022-08-16T23:26:47.957Z,5.82
2022-08-16T23:29:25.450Z,4.38
2022-08-16T23:32:11.163Z,5.32
2022-08-16T23:34:38.371Z,4.82
2022-08-16T23:37:06.577Z,5.50
2022-08-16T23:39:34.531Z,4.82
2022-08-16T23:42:01.974Z,3.85
2022-08-16T23:44:55.677Z,5.28
2022-08-16T23:47:15.783Z,5.50
2022-08-16T23:50:01.110Z,4.22
2022-08-16T23:52:48.855Z,5.60
2022-08-16T23:55:17.503Z,4.22
2022-08-16T23:57:45.177Z,5.20
